createdAt,value
2019-05-07T00:01:14.401Z,101581.06
2019-05-07T00:02:24.014Z,101581.59
2019-05-07T00:03:29.680Z,101577.86
2019-05-07T00:04:35.269Z,101574.16
2019-05-07T00:05:42.608Z,101579.39
2019-05-07T00:06:47.025Z,101573.69
2019-05-07T00:07:52.153Z,101572.56
2019-05-07T00:08:57.515Z,101575.72
2019-05-07T00:10:03.359Z,101577.91
2019-05-07T00:11:08.842Z,101570.47
2019-05-07T00:12:14.111Z,101570.39
2019-05-07T00:13:19.378Z,101570.77
2019-05-07T00:14:24.008Z,101574.49
2019-05-07T00:15:28.704Z,101570.09
2019-05-07T00:16:33.474Z,101564.16
2019-05-07T00:17:38.817Z,101561.36
2019-05-07T00:18:44.096Z,101557.92
2019-05-07T00:19:48.803Z,101561.92
2019-05-07T00:20:54.433Z,101563.70
2019-05-07T00:21:59.468Z,101560.88
2019-05-07T00:23:04.026Z,101565.02
2019-05-07T00:24:13.183Z,101563.46
2019-05-07T00:25:17.315Z,101562.43
2019-05-07T00:26:22.648Z,101565.02
2019-05-07T00:27:27.715Z,101561.49
2019-05-07T00:28:32.662Z,101564.08
2019-05-07T00:29:37.416Z,101561.67
2019-05-07T00:30:45.316Z,101562.20
2019-05-07T00:31:52.071Z,101557.21
2019-05-07T00:32:57.518Z,101559.28
2019-05-07T00:34:02.886Z,101556.97
2019-05-07T00:35:09.320Z,101558.22
2019-05-07T00:36:32.922Z,101555.31
2019-05-07T00:37:46.394Z,101556.23
2019-05-07T00:38:54.752Z,101554.92
2019-05-07T00:40:32.124Z,101557.79
2019-05-07T00:41:43.602Z,101550.44
2019-05-07T00:43:05.952Z,101551.20
2019-05-07T00:44:13.449Z,101551.16
2019-05-07T00:45:25.924Z,101552.17
2019-05-07T00:46:32.470Z,101554.20
2019-05-07T00:47:37.243Z,101555.89
2019-05-07T00:48:42.434Z,101558.59
2019-05-07T00:49:47.407Z,101555.41
2019-05-07T00:50:56.024Z,101551.60
2019-05-07T00:52:02.858Z,101552.88
2019-05-07T00:53:08.326Z,101552.84
2019-05-07T00:54:13.613Z,101557.25
2019-05-07T00:55:18.669Z,101552.42
2019-05-07T00:56:23.691Z,101553.67
2019-05-07T00:57:28.706Z,101550.83
2019-05-07T00:58:33.770Z,101553.62
2019-05-07T00:59:38.918Z,101553.55
2019-05-07T01:00:43.581Z,101553.73
2019-05-07T01:01:48.605Z,101555.88
2019-05-07T01:02:53.874Z,101558.13
2019-05-07T01:03:58.896Z,101555.34
2019-05-07T01:05:03.913Z,101555.33
2019-05-07T01:06:08.604Z,101556.41
2019-05-07T01:07:13.298Z,101553.84
2019-05-07T01:08:18.296Z,101552.41
2019-05-07T01:09:23.505Z,101556.23
2019-05-07T01:10:28.836Z,101558.36
2019-05-07T01:11:33.753Z,101549.98
2019-05-07T01:12:38.740Z,101551.98
2019-05-07T01:13:43.617Z,101549.13
2019-05-07T01:14:48.695Z,101552.09
2019-05-07T01:15:54.087Z,101550.86
2019-05-07T01:16:58.906Z,101549.27
2019-05-07T01:18:03.915Z,101547.30
2019-05-07T01:19:09.240Z,101550.36
2019-05-07T01:20:15.046Z,101545.48
2019-05-07T01:21:19.836Z,101539.82
2019-05-07T01:22:24.822Z,101550.93
2019-05-07T01:23:29.581Z,101546.19
2019-05-07T01:24:35.075Z,101545.81
2019-05-07T01:25:42.829Z,101544.80
2019-05-07T01:26:47.375Z,101543.49
2019-05-07T01:27:53.342Z,101539.82
2019-05-07T01:29:02.817Z,101547.29
2019-05-07T01:30:07.856Z,101554.16
2019-05-07T01:31:12.705Z,101545.19
2019-05-07T01:32:29.722Z,101544.99
2019-05-07T01:33:47.002Z,101543.34
2019-05-07T01:34:58.502Z,101545.59
2019-05-07T01:36:13.252Z,101544.44
2019-05-07T01:37:18.365Z,101547.17
2019-05-07T01:38:23.473Z,101545.94
2019-05-07T01:39:28.256Z,101537.21
2019-05-07T01:40:33.102Z,101539.59
2019-05-07T01:41:37.934Z,101536.54
2019-05-07T01:42:42.886Z,101537.37
2019-05-07T01:43:48.234Z,101538.30
2019-05-07T01:44:53.277Z,101544.45
2019-05-07T01:45:58.855Z,101539.77
2019-05-07T01:47:04.091Z,101537.06
2019-05-07T01:48:09.393Z,101543.21
2019-05-07T01:49:14.696Z,101540.17
2019-05-07T01:50:20.076Z,101532.96
2019-05-07T01:51:25.517Z,101541.06
2019-05-07T01:52:30.089Z,101543.86
2019-05-07T01:53:34.930Z,101539.46
2019-05-07T01:54:39.828Z,101543.91
2019-05-07T01:55:44.646Z,101545.22
2019-05-07T01:56:52.173Z,101541.46
2019-05-07T01:57:57.058Z,101540.52
2019-05-07T01:59:02.555Z,101546.46
2019-05-07T02:00:07.804Z,101543.34
2019-05-07T02:01:13.189Z,101544.72
2019-05-07T02:02:27.296Z,101551.22
2019-05-07T02:03:44.729Z,101549.80
2019-05-07T02:05:03.218Z,101551.98
2019-05-07T02:06:18.740Z,101549.13
2019-05-07T02:07:33.554Z,101543.67
2019-05-07T02:08:53.651Z,101543.92
2019-05-07T02:10:22.620Z,101541.98
2019-05-07T02:11:32.887Z,101541.89
2019-05-07T02:12:39.042Z,101546.06
2019-05-07T02:13:44.629Z,101543.43
2019-05-07T02:14:49.938Z,101544.53
2019-05-07T02:16:00.438Z,101537.34
2019-05-07T02:17:02.953Z,101540.30
2019-05-07T02:18:07.705Z,101539.39
2019-05-07T02:19:13.023Z,101545.59
2019-05-07T02:20:18.388Z,101543.80
2019-05-07T02:21:23.701Z,101540.98
2019-05-07T02:22:28.685Z,101545.72
2019-05-07T02:23:33.498Z,101542.99
2019-05-07T02:24:39.430Z,101534.41
2019-05-07T02:25:44.991Z,101536.80
2019-05-07T02:26:52.027Z,101544.82
2019-05-07T02:27:57.117Z,101541.07
2019-05-07T02:29:02.723Z,101547.12
2019-05-07T02:30:07.735Z,101541.65
2019-05-07T02:31:15.006Z,101545.17
2019-05-07T02:32:19.804Z,101541.33
2019-05-07T02:33:24.810Z,101541.98
2019-05-07T02:34:29.791Z,101545.36
2019-05-07T02:35:35.074Z,101536.03
2019-05-07T02:36:43.382Z,101536.38
2019-05-07T02:37:56.555Z,101535.13
2019-05-07T02:39:17.919Z,101532.25
2019-05-07T02:40:47.308Z,101535.95
2019-05-07T02:41:54.182Z,101531.52
2019-05-07T02:43:02.691Z,101534.71
2019-05-07T02:44:06.104Z,101539.50
2019-05-07T02:45:33.463Z,101536.11
2019-05-07T02:46:55.789Z,101532.94
2019-05-07T02:48:03.436Z,101534.16
2019-05-07T02:49:35.608Z,101535.32
2019-05-07T02:50:47.774Z,101535.03
2019-05-07T02:51:57.491Z,101540.83
2019-05-07T02:53:07.377Z,101537.08
2019-05-07T02:54:18.593Z,101536.84
2019-05-07T02:55:28.494Z,101537.06
2019-05-07T02:56:33.786Z,101538.75
2019-05-07T02:57:39.148Z,101538.48
2019-05-07T02:58:44.572Z,101536.17
2019-05-07T02:59:49.516Z,101530.88
2019-05-07T03:00:54.917Z,101534.33
2019-05-07T03:01:59.662Z,101535.81
2019-05-07T03:03:04.769Z,101531.13
2019-05-07T03:04:12.695Z,101529.60
2019-05-07T03:05:16.569Z,101532.39
2019-05-07T03:06:23.326Z,101532.36
2019-05-07T03:07:28.343Z,101538.76
2019-05-07T03:08:33.606Z,101542.44
2019-05-07T03:09:38.759Z,101532.52
2019-05-07T03:10:43.894Z,101536.06
2019-05-07T03:11:48.569Z,101535.72
2019-05-07T03:12:54.031Z,101529.09
2019-05-07T03:13:58.774Z,101533.69
2019-05-07T03:15:04.701Z,101533.42
2019-05-07T03:16:12.817Z,101531.53
2019-05-07T03:17:16.940Z,101540.17
2019-05-07T03:18:23.244Z,101536.62
2019-05-07T03:19:28.999Z,101542.34
2019-05-07T03:20:53.922Z,101534.17
2019-05-07T03:21:58.970Z,101536.82
2019-05-07T03:23:04.296Z,101534.18
2019-05-07T03:24:17.388Z,101532.00
2019-05-07T03:25:26.157Z,101530.97
2019-05-07T03:26:34.895Z,101524.84
2019-05-07T03:27:42.907Z,101532.89
2019-05-07T03:29:03.627Z,101530.08
2019-05-07T03:30:35.936Z,101529.27
2019-05-07T03:31:55.512Z,101521.99
2019-05-07T03:33:07.069Z,101528.20
2019-05-07T03:34:17.463Z,101530.32
2019-05-07T03:35:37.253Z,101531.63
2019-05-07T03:36:47.730Z,101529.88
2019-05-07T03:37:54.387Z,101525.99
2019-05-07T03:38:57.910Z,101531.85
2019-05-07T03:40:04.228Z,101535.24
2019-05-07T03:41:09.102Z,101530.38
2019-05-07T03:42:14.502Z,101530.21
2019-05-07T03:43:22.657Z,101527.02
2019-05-07T03:44:45.312Z,101531.72
2019-05-07T03:46:07.709Z,101530.51
2019-05-07T03:47:17.533Z,101530.51
2019-05-07T03:48:24.270Z,101534.46
2019-05-07T03:49:33.845Z,101532.50
2019-05-07T03:50:37.888Z,101534.50
2019-05-07T03:51:44.249Z,101530.19
2019-05-07T03:52:49.249Z,101531.13
2019-05-07T03:53:54.208Z,101528.96
2019-05-07T03:54:59.582Z,101530.77
2019-05-07T03:56:04.889Z,101530.95
2019-05-07T03:57:11.685Z,101534.23
2019-05-07T03:58:16.990Z,101531.73
2019-05-07T03:59:23.086Z,101528.63
2019-05-07T04:00:33.277Z,101526.73
2019-05-07T04:01:38.243Z,101532.41
2019-05-07T04:02:43.948Z,101534.13
2019-05-07T04:03:49.558Z,101533.91
2019-05-07T04:04:54.255Z,101534.46
2019-05-07T04:05:59.049Z,101538.81
2019-05-07T04:07:03.843Z,101535.68
2019-05-07T04:08:09.084Z,101534.19
2019-05-07T04:09:13.705Z,101534.77
2019-05-07T04:10:18.429Z,101533.05
2019-05-07T04:11:23.545Z,101530.48
2019-05-07T04:12:28.875Z,101529.90
2019-05-07T04:13:34.025Z,101533.38
2019-05-07T04:14:38.789Z,101529.39
2019-05-07T04:15:44.431Z,101529.33
2019-05-07T04:16:49.455Z,101527.08
2019-05-07T04:17:54.184Z,101525.78
2019-05-07T04:18:59.257Z,101525.52
2019-05-07T04:20:04.673Z,101524.42
2019-05-07T04:21:10.132Z,101521.91
2019-05-07T04:22:15.023Z,101533.95
2019-05-07T04:23:22.963Z,101529.09
2019-05-07T04:24:42.678Z,101535.63
2019-05-07T04:26:05.680Z,101530.23
2019-05-07T04:27:33.972Z,101527.37
2019-05-07T04:28:58.132Z,101526.55
2019-05-07T04:30:03.972Z,101525.55
2019-05-07T04:31:09.054Z,101527.45
2019-05-07T04:32:14.492Z,101528.94
2019-05-07T04:33:23.467Z,101522.79
2019-05-07T04:34:44.840Z,101530.94
2019-05-07T04:35:55.346Z,101528.57
2019-05-07T04:37:03.279Z,101524.42
2019-05-07T04:38:07.524Z,101529.50
2019-05-07T04:39:13.440Z,101529.14
2019-05-07T04:40:18.314Z,101520.33
2019-05-07T04:41:23.722Z,101520.38
2019-05-07T04:42:28.924Z,101525.37
2019-05-07T04:43:33.942Z,101521.20
2019-05-07T04:44:38.733Z,101520.38
2019-05-07T04:45:43.795Z,101526.16
2019-05-07T04:46:48.795Z,101527.09
2019-05-07T04:47:54.072Z,101523.70
2019-05-07T04:48:59.573Z,101525.60
2019-05-07T04:50:04.908Z,101526.01
2019-05-07T04:51:12.682Z,101525.41
2019-05-07T04:52:27.355Z,101529.72
2019-05-07T04:53:32.935Z,101524.67
2019-05-07T04:54:37.886Z,101526.45
2019-05-07T04:55:43.278Z,101520.81
2019-05-07T04:56:48.529Z,101520.98
2019-05-07T04:57:53.564Z,101522.55
2019-05-07T04:58:58.554Z,101519.75
2019-05-07T05:00:03.810Z,101519.48
2019-05-07T05:01:13.594Z,101517.95
2019-05-07T05:02:22.877Z,101515.66
2019-05-07T05:03:28.742Z,101518.53
2019-05-07T05:04:34.753Z,101519.94
2019-05-07T05:05:43.259Z,101520.09
2019-05-07T05:06:47.577Z,101517.20
2019-05-07T05:07:53.332Z,101517.42
2019-05-07T05:08:58.701Z,101524.35
2019-05-07T05:10:03.447Z,101515.69
2019-05-07T05:11:08.831Z,101515.02
2019-05-07T05:12:13.323Z,101519.09
2019-05-07T05:13:18.245Z,101516.50
2019-05-07T05:14:23.106Z,101515.53
2019-05-07T05:15:28.653Z,101519.28
2019-05-07T05:16:33.995Z,101523.64
2019-05-07T05:17:49.591Z,101511.37
2019-05-07T05:18:45.889Z,101519.99
2019-05-07T05:19:52.531Z,101521.08
2019-05-07T05:21:15.181Z,101525.73
2019-05-07T05:22:37.493Z,101513.97
2019-05-07T05:23:52.390Z,101526.45
2019-05-07T05:25:22.825Z,101521.92
2019-05-07T05:26:27.867Z,101518.88
2019-05-07T05:27:32.898Z,101528.70
2019-05-07T05:28:37.870Z,101521.25
2019-05-07T05:29:43.481Z,101529.66
2019-05-07T05:30:52.809Z,101525.35
2019-05-07T05:31:57.814Z,101526.96
2019-05-07T05:33:04.410Z,101528.98
2019-05-07T05:34:09.391Z,101521.65
2019-05-07T05:35:14.637Z,101525.46
2019-05-07T05:36:22.045Z,101526.87
2019-05-07T05:37:27.248Z,101523.23
2019-05-07T05:38:33.121Z,101532.00
2019-05-07T05:39:38.096Z,101520.80
2019-05-07T05:40:43.117Z,101520.72
2019-05-07T05:41:51.865Z,101527.15
2019-05-07T05:43:03.168Z,101525.04
2019-05-07T05:44:22.770Z,101527.49
2019-05-07T05:45:42.653Z,101534.83
2019-05-07T05:46:47.564Z,101529.13
2019-05-07T05:48:04.407Z,101530.78
2019-05-07T05:48:59.656Z,101535.05
2019-05-07T05:50:05.797Z,101531.45
2019-05-07T05:51:31.687Z,101534.16
2019-05-07T05:52:44.078Z,101532.69
2019-05-07T05:53:53.552Z,101528.48
2019-05-07T05:55:09.376Z,101527.41
2019-05-07T05:56:25.854Z,101530.88
2019-05-07T05:58:04.667Z,101528.34
2019-05-07T05:59:25.382Z,101529.02
2019-05-07T06:00:37.847Z,101525.36
2019-05-07T06:02:03.348Z,101530.08
2019-05-07T06:03:24.425Z,101524.49
2019-05-07T06:04:52.786Z,101520.22
2019-05-07T06:06:12.868Z,101529.37
2019-05-07T06:07:25.334Z,101528.45
2019-05-07T06:08:55.322Z,101527.78
2019-05-07T06:10:08.798Z,101518.95
2019-05-07T06:11:38.818Z,101523.20
2019-05-07T06:12:49.151Z,101524.39
2019-05-07T06:14:27.426Z,101518.45
2019-05-07T06:15:49.232Z,101518.59
2019-05-07T06:17:13.046Z,101515.09
2019-05-07T06:18:35.581Z,101512.55
2019-05-07T06:19:46.422Z,101515.02
2019-05-07T06:21:09.838Z,101514.56
2019-05-07T06:22:42.863Z,101515.25
2019-05-07T06:23:53.598Z,101514.07
2019-05-07T06:25:02.353Z,101516.72
2019-05-07T06:26:07.491Z,101524.36
2019-05-07T06:27:12.461Z,101513.20
2019-05-07T06:28:17.191Z,101518.48
2019-05-07T06:29:23.158Z,101517.61
2019-05-07T06:30:27.923Z,101515.64
2019-05-07T06:31:33.337Z,101515.84
2019-05-07T06:32:38.338Z,101516.50
2019-05-07T06:33:43.408Z,101521.34
2019-05-07T06:34:48.416Z,101520.98
2019-05-07T06:35:52.862Z,101525.08
2019-05-07T06:36:57.565Z,101524.23
2019-05-07T06:38:04.051Z,101518.59
2019-05-07T06:39:23.795Z,101524.06
2019-05-07T06:40:47.378Z,101521.34
2019-05-07T06:42:09.946Z,101521.61
2019-05-07T06:43:25.985Z,101524.92
2019-05-07T06:44:32.006Z,101524.99
2019-05-07T06:45:42.198Z,101523.48
2019-05-07T06:46:47.291Z,101525.75
2019-05-07T06:47:52.297Z,101516.30
2019-05-07T06:48:56.997Z,101524.97
2019-05-07T06:50:03.140Z,101520.61
2019-05-07T06:51:07.611Z,101517.45
2019-05-07T06:52:12.397Z,101520.22
2019-05-07T06:53:17.375Z,101525.55
2019-05-07T06:54:22.667Z,101524.33
2019-05-07T06:55:27.948Z,101524.87
2019-05-07T06:56:32.975Z,101520.99
2019-05-07T06:57:38.347Z,101515.91
2019-05-07T06:59:04.695Z,101516.67
2019-05-07T07:00:28.876Z,101515.28
2019-05-07T07:01:57.258Z,101514.80
2019-05-07T07:03:12.748Z,101524.13
2019-05-07T07:04:35.108Z,101515.06
2019-05-07T07:05:59.649Z,101517.50
2019-05-07T07:07:37.431Z,101521.19
2019-05-07T07:09:12.710Z,101521.50
2019-05-07T07:10:39.993Z,101516.46
2019-05-07T07:11:53.083Z,101519.46
2019-05-07T07:12:58.427Z,101519.84
2019-05-07T07:14:03.157Z,101515.20
2019-05-07T07:15:07.849Z,101523.03
2019-05-07T07:16:13.088Z,101518.23
2019-05-07T07:17:17.817Z,101517.88
2019-05-07T07:18:23.195Z,101514.97
2019-05-07T07:19:28.683Z,101520.41
2019-05-07T07:20:33.976Z,101513.48
2019-05-07T07:21:39.019Z,101513.61
2019-05-07T07:22:44.021Z,101518.20
2019-05-07T07:23:49.350Z,101515.37
2019-05-07T07:24:54.057Z,101512.76
2019-05-07T07:25:59.083Z,101513.92
2019-05-07T07:27:04.108Z,101509.48
2019-05-07T07:28:08.868Z,101512.08
2019-05-07T07:29:15.486Z,101517.61
2019-05-07T07:30:42.062Z,101509.22
2019-05-07T07:31:52.790Z,101276.14
2019-05-07T07:32:58.314Z,101508.33
2019-05-07T07:34:04.013Z,101509.66
2019-05-07T07:35:10.162Z,101497.44
2019-05-07T07:36:15.216Z,101497.44
2019-05-07T07:37:42.849Z,101497.69
2019-05-07T07:38:47.388Z,101497.69
2019-05-07T07:39:54.546Z,101503.51
2019-05-07T07:41:23.912Z,101502.51
2019-05-07T07:42:28.894Z,101506.44
2019-05-07T07:43:33.897Z,101506.50
2019-05-07T07:44:38.661Z,101498.76
2019-05-07T07:45:43.689Z,101500.05
2019-05-07T07:46:48.735Z,101497.20
2019-05-07T07:47:53.283Z,101495.45
2019-05-07T07:49:09.848Z,101494.62
2019-05-07T07:50:05.233Z,101500.07
2019-05-07T07:51:10.514Z,101495.66
2019-05-07T07:52:15.634Z,101486.69
2019-05-07T07:53:22.722Z,101497.63
2019-05-07T07:54:27.792Z,101495.06
2019-05-07T07:55:46.715Z,101493.45
2019-05-07T07:57:21.678Z,101492.25
2019-05-07T07:58:41.928Z,101490.59
2019-05-07T07:59:52.858Z,101489.79
2019-05-07T08:01:14.888Z,101487.87
2019-05-07T08:02:27.390Z,101482.85
2019-05-07T08:03:33.001Z,101484.63
2019-05-07T08:04:38.028Z,101487.74
2019-05-07T08:05:43.090Z,101483.16
2019-05-07T08:06:52.275Z,101485.07
2019-05-07T08:07:56.759Z,101482.42
2019-05-07T08:09:02.238Z,101487.45
2019-05-07T08:10:07.655Z,101484.34
2019-05-07T08:11:12.834Z,101481.35
2019-05-07T08:12:17.500Z,101481.35
2019-05-07T08:13:23.057Z,101487.35
2019-05-07T08:14:27.935Z,101486.45
2019-05-07T08:15:33.189Z,101481.91
2019-05-07T08:16:38.227Z,101481.39
2019-05-07T08:17:43.218Z,101485.98
2019-05-07T08:18:47.914Z,101485.31
2019-05-07T08:19:52.421Z,101482.47
2019-05-07T08:20:56.889Z,101485.14
2019-05-07T08:22:02.983Z,101482.68
2019-05-07T08:23:07.797Z,101486.29
2019-05-07T08:24:12.795Z,101491.29
2019-05-07T08:25:17.351Z,101481.89
2019-05-07T08:26:22.070Z,101477.05
2019-05-07T08:27:26.746Z,101477.87
2019-05-07T08:28:32.126Z,101477.74
2019-05-07T08:29:37.371Z,101477.40
2019-05-07T08:30:43.925Z,101482.48
2019-05-07T08:31:55.333Z,101476.54
2019-05-07T08:33:03.722Z,101475.22
2019-05-07T08:34:15.879Z,101477.46
2019-05-07T08:35:32.528Z,101479.26
2019-05-07T08:36:37.279Z,101474.88
2019-05-07T08:37:42.718Z,101476.04
2019-05-07T08:38:52.901Z,101471.29
2019-05-07T08:39:57.783Z,101467.63
2019-05-07T08:41:03.020Z,101463.66
2019-05-07T08:42:08.083Z,101465.45
2019-05-07T08:43:12.789Z,101469.86
2019-05-07T08:44:22.315Z,101469.99
2019-05-07T08:45:44.721Z,101472.73
2019-05-07T08:47:03.590Z,101469.59
2019-05-07T08:48:32.979Z,101464.72
2019-05-07T08:49:40.382Z,101462.51
2019-05-07T08:50:46.191Z,101463.26
2019-05-07T08:52:03.959Z,101463.54
2019-05-07T08:53:08.485Z,101466.16
2019-05-07T08:54:13.215Z,101460.70
2019-05-07T08:55:18.526Z,101456.77
2019-05-07T08:56:23.512Z,101454.84
2019-05-07T08:57:28.896Z,101456.06
2019-05-07T08:58:33.853Z,101462.49
2019-05-07T08:59:38.950Z,101464.15
2019-05-07T09:00:44.221Z,101454.66
2019-05-07T09:01:48.925Z,101454.63
2019-05-07T09:02:53.923Z,101465.98
2019-05-07T09:03:58.630Z,101460.60
2019-05-07T09:05:03.329Z,101457.23
2019-05-07T09:06:08.008Z,101456.78
2019-05-07T09:07:13.253Z,101460.39
2019-05-07T09:08:17.928Z,101448.86
2019-05-07T09:09:22.647Z,101454.37
2019-05-07T09:10:27.422Z,101447.10
2019-05-07T09:11:32.692Z,101446.03
2019-05-07T09:12:37.397Z,101450.69
2019-05-07T09:13:42.199Z,101442.35
2019-05-07T09:14:47.374Z,101445.64
2019-05-07T09:15:52.920Z,101452.92
2019-05-07T09:16:57.407Z,101448.28
2019-05-07T09:18:02.406Z,101440.86
2019-05-07T09:19:07.238Z,101447.30
2019-05-07T09:20:12.771Z,101443.68
2019-05-07T09:21:17.427Z,101441.47
2019-05-07T09:22:23.129Z,101441.94
2019-05-07T09:23:28.166Z,101441.09
2019-05-07T09:24:33.569Z,101443.47
2019-05-07T09:25:47.457Z,101442.20
2019-05-07T09:27:22.939Z,101442.45
2019-05-07T09:28:32.643Z,101441.38
2019-05-07T09:30:05.364Z,101438.91
2019-05-07T09:31:18.267Z,101438.65
2019-05-07T09:32:32.472Z,101429.52
2019-05-07T09:33:43.896Z,101436.22
2019-05-07T09:34:48.932Z,101431.67
2019-05-07T09:35:55.238Z,101432.84
2019-05-07T09:37:02.351Z,101426.55
2019-05-07T09:38:07.486Z,101425.59
2019-05-07T09:39:12.243Z,101423.22
2019-05-07T09:40:17.271Z,101424.49
2019-05-07T09:41:28.063Z,101423.92
2019-05-07T09:42:33.506Z,101420.09
2019-05-07T09:43:38.775Z,101422.31
2019-05-07T09:44:44.037Z,101421.50
2019-05-07T09:45:49.311Z,101419.06
2019-05-07T09:46:54.049Z,101424.88
2019-05-07T09:47:58.775Z,101422.82
2019-05-07T09:49:03.782Z,101422.29
2019-05-07T09:50:09.029Z,101419.55
2019-05-07T09:51:14.060Z,101426.02
2019-05-07T09:52:19.098Z,101419.50
2019-05-07T09:53:24.055Z,101424.10
2019-05-07T09:54:28.794Z,101421.08
2019-05-07T09:55:34.048Z,101417.92
2019-05-07T09:56:39.436Z,101415.97
2019-05-07T09:57:44.198Z,101417.65
2019-05-07T09:58:48.812Z,101415.29
2019-05-07T09:59:53.634Z,101418.42
2019-05-07T10:00:58.622Z,101408.87
2019-05-07T10:02:03.282Z,101415.54
2019-05-07T10:03:08.314Z,101414.13
2019-05-07T10:04:13.354Z,101419.63
2019-05-07T10:05:18.046Z,101418.97
2019-05-07T10:06:23.050Z,101417.98
2019-05-07T10:07:28.501Z,101410.90
2019-05-07T10:08:33.402Z,101414.42
2019-05-07T10:09:38.758Z,101417.05
2019-05-07T10:10:45.625Z,101410.35
2019-05-07T10:11:57.245Z,101411.44
2019-05-07T10:13:12.096Z,101413.25
2019-05-07T10:14:17.247Z,101412.09
2019-05-07T10:15:22.607Z,101411.68
2019-05-07T10:16:39.235Z,101407.11
2019-05-07T10:17:54.170Z,101407.70
2019-05-07T10:18:59.164Z,101406.61
2019-05-07T10:20:17.901Z,101407.67
2019-05-07T10:21:12.629Z,101406.64
2019-05-07T10:22:17.727Z,101405.31
2019-05-07T10:23:23.239Z,101408.17
2019-05-07T10:24:28.038Z,101407.34
2019-05-07T10:25:38.892Z,101394.48
2019-05-07T10:26:43.384Z,101400.34
2019-05-07T10:27:48.353Z,101403.20
2019-05-07T10:28:53.923Z,101399.06
2019-05-07T10:29:59.322Z,101395.86
2019-05-07T10:31:04.300Z,101398.83
2019-05-07T10:32:09.100Z,101396.98
2019-05-07T10:33:13.866Z,101395.84
2019-05-07T10:34:18.851Z,101400.13
2019-05-07T10:35:23.550Z,101397.98
2019-05-07T10:36:28.579Z,101398.78
2019-05-07T10:37:33.543Z,101396.95
2019-05-07T10:38:38.881Z,101399.63
2019-05-07T10:39:43.335Z,101393.70
2019-05-07T10:40:48.030Z,101394.51
2019-05-07T10:41:53.032Z,101388.47
2019-05-07T10:42:57.750Z,101397.31
2019-05-07T10:44:02.764Z,101387.46
2019-05-07T10:45:35.889Z,101391.15
2019-05-07T10:46:58.067Z,101387.61
2019-05-07T10:48:27.289Z,101387.89
2019-05-07T10:49:54.113Z,101390.86
2019-05-07T10:50:59.518Z,101382.80
2019-05-07T10:52:04.024Z,101384.59
2019-05-07T10:53:09.291Z,101377.64
2019-05-07T10:54:14.007Z,101383.39
2019-05-07T10:55:19.084Z,101379.75
2019-05-07T10:56:23.798Z,101378.48
2019-05-07T10:57:29.142Z,101381.01
2019-05-07T10:58:34.126Z,101381.55
2019-05-07T10:59:38.875Z,101378.28
2019-05-07T11:00:43.541Z,101378.00
2019-05-07T11:01:57.459Z,101384.39
2019-05-07T11:03:02.553Z,101383.36
2019-05-07T11:04:07.320Z,101380.22
2019-05-07T11:05:13.081Z,101374.03
2019-05-07T11:06:17.804Z,101381.95
2019-05-07T11:07:22.688Z,101379.95
2019-05-07T11:08:27.124Z,101382.97
2019-05-07T11:09:32.834Z,101381.59
2019-05-07T11:10:37.643Z,101377.12
2019-05-07T11:11:42.605Z,101375.44
2019-05-07T11:12:47.559Z,101375.34
2019-05-07T11:13:55.833Z,101377.83
2019-05-07T11:14:59.054Z,101377.19
2019-05-07T11:16:07.765Z,101375.25
2019-05-07T11:17:27.487Z,101374.55
2019-05-07T11:18:39.813Z,101375.50
2019-05-07T11:19:44.805Z,101368.64
2019-05-07T11:20:51.159Z,101372.24
2019-05-07T11:21:55.933Z,101369.59
2019-05-07T11:23:02.652Z,101362.66
2019-05-07T11:24:07.796Z,101366.47
2019-05-07T11:25:12.687Z,101360.24
2019-05-07T11:26:17.782Z,101355.78
2019-05-07T11:27:23.021Z,101355.50
2019-05-07T11:28:28.097Z,101354.46
2019-05-07T11:29:36.366Z,101354.83
2019-05-07T11:30:39.875Z,101354.12
2019-05-07T11:31:44.923Z,101352.19
2019-05-07T11:32:52.064Z,101352.44
2019-05-07T11:33:57.412Z,101350.37
2019-05-07T11:35:03.159Z,101348.87
2019-05-07T11:36:07.656Z,101347.87
2019-05-07T11:37:12.633Z,101351.06
2019-05-07T11:38:21.561Z,101354.97
2019-05-07T11:39:24.349Z,101353.30
2019-05-07T11:40:29.072Z,101349.43
2019-05-07T11:41:47.614Z,101345.37
2019-05-07T11:43:22.252Z,101346.77
2019-05-07T11:44:29.047Z,101341.17
2019-05-07T11:45:59.305Z,101340.69
2019-05-07T11:47:28.931Z,101339.36
2019-05-07T11:48:36.488Z,101333.95
2019-05-07T11:49:58.556Z,101336.20
2019-05-07T11:51:15.161Z,101329.47
2019-05-07T11:52:28.337Z,101331.20
2019-05-07T11:53:33.472Z,101332.41
2019-05-07T11:54:38.522Z,101334.70
2019-05-07T11:55:43.771Z,101337.81
2019-05-07T11:56:48.464Z,101328.43
2019-05-07T11:57:53.487Z,101328.45
2019-05-07T11:58:59.075Z,101327.19
2019-05-07T12:00:03.874Z,101323.69
2019-05-07T12:01:13.571Z,101325.26
2019-05-07T12:02:18.621Z,101325.31
2019-05-07T12:03:23.661Z,101321.83
2019-05-07T12:04:28.951Z,101328.19
2019-05-07T12:05:34.210Z,101329.04
2019-05-07T12:06:39.360Z,101319.50
2019-05-07T12:07:44.055Z,101321.14
2019-05-07T12:08:51.931Z,101321.42
2019-05-07T12:09:56.074Z,101325.45
2019-05-07T12:11:02.406Z,101314.64
2019-05-07T12:12:07.507Z,101321.07
2019-05-07T12:13:12.993Z,101318.78
2019-05-07T12:14:28.934Z,101322.33
2019-05-07T12:15:24.711Z,101314.91
2019-05-07T12:16:32.038Z,101314.13
2019-05-07T12:17:36.508Z,101315.33
2019-05-07T12:18:43.083Z,101308.50
2019-05-07T12:19:48.400Z,101311.67
2019-05-07T12:20:54.188Z,101311.23
2019-05-07T12:21:59.746Z,101304.97
2019-05-07T12:23:04.639Z,101307.23
2019-05-07T12:24:09.144Z,101307.63
2019-05-07T12:25:13.946Z,101305.20
2019-05-07T12:26:18.413Z,101299.39
2019-05-07T12:27:23.095Z,101301.25
2019-05-07T12:28:28.346Z,101297.77
2019-05-07T12:29:33.035Z,101297.42
2019-05-07T12:31:06.235Z,101288.97
2019-05-07T12:32:24.882Z,101290.23
2019-05-07T12:33:52.186Z,101300.92
2019-05-07T12:35:02.212Z,101292.90
2019-05-07T12:36:07.822Z,101293.30
2019-05-07T12:37:12.518Z,101293.03
2019-05-07T12:38:17.016Z,101290.63
2019-05-07T12:39:22.256Z,101285.43
2019-05-07T12:40:26.948Z,101285.08
2019-05-07T12:41:33.756Z,101281.93
2019-05-07T12:42:38.917Z,101278.60
2019-05-07T12:43:43.607Z,101275.99
2019-05-07T12:44:49.257Z,101279.55
2019-05-07T12:45:54.255Z,101280.63
2019-05-07T12:46:58.965Z,101276.70
2019-05-07T12:48:03.687Z,101284.99
2019-05-07T12:49:08.682Z,101281.98
2019-05-07T12:50:14.439Z,101278.36
2019-05-07T12:51:31.630Z,101277.98
2019-05-07T12:52:38.943Z,101274.37
2019-05-07T12:53:47.892Z,101271.53
2019-05-07T12:54:56.931Z,101271.70
2019-05-07T12:56:02.187Z,101269.45
2019-05-07T12:57:07.208Z,101266.34
2019-05-07T12:58:12.658Z,101264.56
2019-05-07T12:59:18.165Z,101266.02
2019-05-07T13:00:42.533Z,101269.42
2019-05-07T13:02:16.680Z,101271.84
2019-05-07T13:03:34.595Z,101264.03